createdAt,value
2019-04-22T00:02:22.600Z,10.90
2019-04-22T00:05:04.817Z,10.80
2019-04-22T00:07:48.943Z,10.90
2019-04-22T00:10:19.492Z,10.90
2019-04-22T00:15:25.870Z,11.00
2019-04-22T00:18:13.432Z,10.90
2019-04-22T00:20:43.657Z,10.90
2019-04-22T00:23:12.826Z,10.90
2019-04-22T00:25:58.608Z,10.90
2019-04-22T00:28:35.102Z,10.80
2019-04-22T00:31:18.977Z,10.80
2019-04-22T00:33:48.426Z,10.60
2019-04-22T00:36:16.657Z,10.60
2019-04-22T00:38:56.508Z,10.50
2019-04-22T00:41:29.835Z,10.50
2019-04-22T00:44:07.163Z,10.50
2019-04-22T00:46:31.839Z,10.50
2019-04-22T00:49:45.371Z,10.50
2019-04-22T00:51:36.528Z,10.50
2019-04-22T00:54:12.315Z,10.50
2019-04-22T00:56:35.752Z,10.50
2019-04-22T00:59:07.065Z,10.60
2019-04-22T01:01:47.074Z,10.50
2019-04-22T01:04:19.963Z,10.50
2019-04-22T01:06:45.180Z,10.50
2019-04-22T01:09:17.340Z,10.40
2019-04-22T01:11:44.988Z,10.40
2019-04-22T01:14:21.648Z,10.40
2019-04-22T01:16:48.572Z,10.30
2019-04-22T01:19:26.012Z,10.20
2019-04-22T01:21:55.050Z,10.30
2019-04-22T01:24:26.466Z,10.20
2019-04-22T01:26:58.188Z,10.30
2019-04-22T01:29:28.060Z,10.20
2019-04-22T01:31:47.368Z,10.10
2019-04-22T01:34:33.612Z,10.10
2019-04-22T01:37:07.723Z,10.00
2019-04-22T01:39:50.135Z,9.90
2019-04-22T01:42:16.920Z,9.90
2019-04-22T01:44:50.905Z,9.80
2019-04-22T01:47:33.130Z,9.80
2019-04-22T01:50:06.133Z,9.70
2019-04-22T01:52:41.625Z,9.70
2019-04-22T01:55:21.175Z,9.70
2019-04-22T01:57:41.446Z,9.70
2019-04-22T02:00:11.395Z,9.70
2019-04-22T02:02:48.782Z,9.60
2019-04-22T02:05:17.651Z,9.70
2019-04-22T02:07:49.053Z,9.80
2019-04-22T02:10:29.823Z,9.80
2019-04-22T02:12:54.038Z,9.70
2019-04-22T02:15:27.849Z,9.70
2019-04-22T02:18:03.242Z,9.60
2019-04-22T02:20:26.770Z,9.60
2019-04-22T02:23:42.909Z,9.50
2019-04-22T02:25:57.918Z,9.40
2019-04-22T02:28:33.697Z,9.40
2019-04-22T02:31:20.054Z,9.40
2019-04-22T02:36:20.168Z,9.30
2019-04-22T02:43:51.507Z,9.20
2019-04-22T02:51:17.136Z,9.00
2019-04-22T02:56:27.594Z,9.00
2019-04-22T03:01:29.914Z,9.00
2019-04-22T03:04:00.885Z,8.90
2019-04-22T03:06:34.825Z,9.00
2019-04-22T03:09:03.440Z,9.00
2019-04-22T03:11:38.063Z,9.00
2019-04-22T03:14:00.742Z,9.00
2019-04-22T03:16:31.963Z,9.00
2019-04-22T03:19:16.949Z,9.00
2019-04-22T03:21:31.772Z,9.10
2019-04-22T03:24:16.101Z,9.00
2019-04-22T03:29:04.870Z,9.10
2019-04-22T03:44:38.606Z,9.30
2019-04-22T03:49:51.944Z,9.30
2019-04-22T03:52:18.805Z,9.20
2019-04-22T03:54:52.398Z,9.10
2019-04-22T04:00:08.238Z,9.00
2019-04-22T04:02:28.839Z,9.10
2019-04-22T04:07:40.533Z,9.10
2019-04-22T04:10:00.972Z,9.10
2019-04-22T04:12:28.444Z,9.20
2019-04-22T04:15:11.664Z,9.30
2019-04-22T04:18:06.555Z,9.30
2019-04-22T04:20:16.401Z,9.30
2019-04-22T04:22:54.137Z,9.30
2019-04-22T04:28:10.849Z,9.30
2019-04-22T04:30:29.874Z,9.30
2019-04-22T04:38:17.242Z,9.50
2019-04-22T04:40:40.812Z,9.50
2019-04-22T04:43:08.345Z,9.70
2019-04-22T04:45:45.217Z,9.80
2019-04-22T04:48:30.421Z,9.80
2019-04-22T04:50:58.166Z,10.00
2019-04-22T04:56:34.824Z,10.10
2019-04-22T05:03:48.885Z,10.30
2019-04-22T05:06:21.758Z,10.30
2019-04-22T05:09:01.484Z,10.40
2019-04-22T05:11:14.444Z,10.50
2019-04-22T05:13:57.811Z,10.50
2019-04-22T05:18:52.912Z,10.60
2019-04-22T05:21:17.991Z,10.70
2019-04-22T05:26:30.898Z,10.80
2019-04-22T05:28:53.640Z,10.90
2019-04-22T05:31:33.998Z,10.90
2019-04-22T05:34:04.313Z,11.00
2019-04-22T05:36:41.356Z,11.10
2019-04-22T05:39:12.463Z,11.20
2019-04-22T05:41:54.884Z,11.30
2019-04-22T05:44:22.348Z,11.40
2019-04-22T05:46:54.394Z,11.50
2019-04-22T05:49:25.755Z,11.60
2019-04-22T05:52:04.710Z,11.70
2019-04-22T05:54:32.971Z,12.00
2019-04-22T05:57:02.067Z,12.80
2019-04-22T05:59:39.608Z,13.80
2019-04-22T06:02:24.114Z,14.50
2019-04-22T06:04:45.065Z,15.40
2019-04-22T06:07:13.791Z,16.00
2019-04-22T06:09:47.270Z,16.50
2019-04-22T06:12:12.593Z,17.30
2019-04-22T06:14:54.284Z,17.70
2019-04-22T06:17:24.481Z,18.10
2019-04-22T06:19:57.599Z,18.40
2019-04-22T06:22:37.655Z,18.90
2019-04-22T06:25:00.986Z,19.50
2019-04-22T06:27:37.526Z,19.80
2019-04-22T06:30:09.466Z,19.80
2019-04-22T06:32:42.297Z,20.10
2019-04-22T06:35:16.428Z,20.70
2019-04-22T06:37:54.917Z,21.20
2019-04-22T06:40:24.375Z,20.80
2019-04-22T06:45:24.981Z,21.40
2019-04-22T06:48:04.831Z,21.20
2019-04-22T06:50:26.123Z,21.10
2019-04-22T06:52:56.770Z,20.70
2019-04-22T06:55:35.735Z,20.80
2019-04-22T06:57:58.174Z,20.60
2019-04-22T07:00:43.002Z,20.20
2019-04-22T07:03:26.909Z,20.40
2019-04-22T07:05:41.224Z,20.20
2019-04-22T07:08:37.087Z,20.20
2019-04-22T07:10:44.841Z,20.50
2019-04-22T07:13:23.624Z,20.60
2019-04-22T07:16:00.397Z,20.60
2019-04-22T07:18:32.727Z,20.90
2019-04-22T07:23:37.522Z,20.70
2019-04-22T07:26:11.801Z,20.90
2019-04-22T07:28:29.117Z,21.70
2019-04-22T07:31:10.975Z,21.90
2019-04-22T07:33:38.038Z,21.50
2019-04-22T07:38:40.567Z,21.70
2019-04-22T07:41:14.650Z,21.60
2019-04-22T07:44:02.955Z,21.70
2019-04-22T07:46:13.771Z,21.70
2019-04-22T07:48:45.224Z,21.50
2019-04-22T07:51:32.921Z,21.20
2019-04-22T07:53:52.353Z,21.00
2019-04-22T07:56:18.732Z,21.20
2019-04-22T07:58:48.878Z,21.20
2019-04-22T08:01:24.671Z,21.30
2019-04-22T08:04:00.089Z,21.10
2019-04-22T08:06:23.621Z,21.40
2019-04-22T08:09:04.697Z,21.80
2019-04-22T08:13:54.592Z,21.30
2019-04-22T08:16:26.250Z,21.00
2019-04-22T08:19:02.952Z,20.70
2019-04-22T08:21:22.362Z,20.40
2019-04-22T08:23:56.921Z,20.30
2019-04-22T08:26:33.512Z,20.50
2019-04-22T08:29:13.093Z,20.80
2019-04-22T08:31:45.696Z,21.00
2019-04-22T08:34:13.722Z,21.30
2019-04-22T08:37:10.259Z,21.30
2019-04-22T08:39:17.103Z,21.30
2019-04-22T08:44:26.177Z,20.80
2019-04-22T08:46:49.014Z,20.80
2019-04-22T08:49:23.173Z,21.40
2019-04-22T08:51:56.133Z,21.60
2019-04-22T08:54:34.483Z,21.90
2019-04-22T08:57:03.391Z,22.30
2019-04-22T08:59:27.961Z,22.50
2019-04-22T09:02:09.922Z,22.60
2019-04-22T09:04:42.119Z,23.00
2019-04-22T09:07:20.654Z,23.10
2019-04-22T09:09:48.582Z,22.90
2019-04-22T09:12:32.984Z,23.10
2019-04-22T09:14:53.612Z,23.60
2019-04-22T09:17:34.967Z,23.50
2019-04-22T09:19:58.347Z,23.50
2019-04-22T09:22:21.181Z,23.80
2019-04-22T09:24:58.575Z,24.00
2019-04-22T09:30:04.973Z,24.60
2019-04-22T09:32:43.250Z,24.70
2019-04-22T09:35:24.853Z,24.90
2019-04-22T09:40:17.162Z,24.90
2019-04-22T09:42:50.493Z,24.40
2019-04-22T09:45:21.627Z,23.70
2019-04-22T09:50:36.850Z,24.10
2019-04-22T09:53:02.301Z,24.40
2019-04-22T09:55:29.863Z,24.30
2019-04-22T09:58:14.130Z,24.00
2019-04-22T10:01:00.257Z,23.90
2019-04-22T10:03:13.691Z,23.90
2019-04-22T10:05:49.940Z,24.30
2019-04-22T10:08:27.116Z,24.60
2019-04-22T10:10:56.583Z,24.90
2019-04-22T10:13:26.420Z,24.90
2019-04-22T10:15:54.830Z,24.90
2019-04-22T10:18:26.162Z,24.90
2019-04-22T10:21:02.980Z,24.80
2019-04-22T10:23:31.610Z,25.20
2019-04-22T10:26:11.114Z,25.40
2019-04-22T10:28:40.109Z,25.40
2019-04-22T10:31:09.940Z,25.00
2019-04-22T10:33:38.154Z,25.20
2019-04-22T10:35:49.666Z,25.70
2019-04-22T10:38:24.167Z,25.80
2019-04-22T10:40:54.458Z,25.90
2019-04-22T10:43:25.228Z,26.00
2019-04-22T10:45:59.883Z,26.00
2019-04-22T10:48:34.551Z,26.50
2019-04-22T10:51:06.543Z,26.40
2019-04-22T10:53:37.519Z,26.50
2019-04-22T10:56:09.337Z,26.50
2019-04-22T10:58:42.492Z,26.60
2019-04-22T11:01:15.885Z,26.30
2019-04-22T11:03:45.610Z,26.00
2019-04-22T11:06:15.108Z,26.10
2019-04-22T11:08:58.347Z,26.40
2019-04-22T11:11:35.813Z,26.30
2019-04-22T11:13:56.048Z,26.60
2019-04-22T11:16:25.805Z,26.60
2019-04-22T11:18:55.912Z,26.30
2019-04-22T11:21:29.587Z,26.40
2019-04-22T11:24:00.707Z,26.70
2019-04-22T11:26:41.069Z,27.00
2019-04-22T11:29:21.396Z,27.10
2019-04-22T11:31:50.542Z,27.30
2019-04-22T11:34:19.519Z,27.20
2019-04-22T11:36:52.695Z,27.10
2019-04-22T11:39:21.833Z,27.20
2019-04-22T11:41:56.011Z,27.20
2019-04-22T11:44:25.368Z,27.70
2019-04-22T11:46:57.215Z,27.20
2019-04-22T11:49:27.879Z,26.70
2019-04-22T11:51:56.678Z,26.40
2019-04-22T11:54:32.694Z,26.20
2019-04-22T11:57:03.197Z,26.00
2019-04-22T11:59:34.705Z,26.00
2019-04-22T12:02:05.030Z,26.10
2019-04-22T12:04:33.964Z,26.40
2019-04-22T12:07:04.247Z,26.20
2019-04-22T12:09:35.385Z,26.30
2019-04-22T12:12:07.668Z,26.10
2019-04-22T12:14:38.497Z,26.00
2019-04-22T12:17:07.766Z,25.90
2019-04-22T12:19:40.117Z,25.90
2019-04-22T12:22:09.369Z,26.00
2019-04-22T12:24:40.524Z,25.90
2019-04-22T12:27:11.093Z,26.00
2019-04-22T12:29:40.710Z,26.40
2019-04-22T12:32:11.746Z,26.40
2019-04-22T12:34:45.293Z,26.50
2019-04-22T12:37:17.463Z,26.60
2019-04-22T12:39:47.447Z,26.70
2019-04-22T12:42:19.502Z,27.20
2019-04-22T12:44:51.175Z,27.30
2019-04-22T12:47:18.333Z,27.40
2019-04-22T12:49:54.264Z,27.70
2019-04-22T12:52:24.084Z,27.50
2019-04-22T12:54:47.185Z,27.30
2019-04-22T12:57:16.811Z,27.30
2019-04-22T12:59:45.841Z,27.10
2019-04-22T13:02:16.934Z,26.90
2019-04-22T13:04:49.961Z,26.70
2019-04-22T13:07:19.771Z,26.90
2019-04-22T13:09:49.524Z,26.70
2019-04-22T13:12:19.344Z,26.30
2019-04-22T13:14:49.129Z,26.10
2019-04-22T13:17:20.875Z,26.10
2019-04-22T13:19:50.061Z,26.10
2019-04-22T13:22:20.750Z,26.20
2019-04-22T13:24:49.929Z,26.40
2019-04-22T13:27:21.233Z,26.30
2019-04-22T13:29:50.913Z,26.30
2019-04-22T13:32:22.662Z,26.10
2019-04-22T13:34:57.952Z,26.20
2019-04-22T13:37:23.274Z,26.20
2019-04-22T13:39:52.912Z,26.50
2019-04-22T13:42:25.450Z,27.00
2019-04-22T13:44:58.112Z,27.20
2019-04-22T13:47:42.105Z,27.60
2019-04-22T13:50:34.552Z,28.00
2019-04-22T13:53:24.163Z,28.10
2019-04-22T13:58:00.766Z,28.60
2019-04-22T14:00:22.498Z,27.70
2019-04-22T14:03:12.865Z,27.40
2019-04-22T14:05:44.854Z,27.60
2019-04-22T14:08:14.552Z,27.60
2019-04-22T14:10:48.233Z,27.70
2019-04-22T14:13:19.497Z,28.00
2019-04-22T14:15:51.127Z,28.90
2019-04-22T14:18:28.632Z,29.90
2019-04-22T14:21:00.984Z,30.40
2019-04-22T14:23:33.013Z,30.10
2019-04-22T14:26:02.036Z,30.10
2019-04-22T14:28:31.361Z,29.90
2019-04-22T14:31:04.361Z,30.10
2019-04-22T14:33:38.375Z,30.30
2019-04-22T14:36:11.640Z,30.80
2019-04-22T14:38:43.899Z,30.50
2019-04-22T14:41:39.098Z,30.30
2019-04-22T14:45:00.779Z,29.90
2019-04-22T14:46:58.571Z,29.90
2019-04-22T14:49:23.847Z,30.20
2019-04-22T14:51:57.664Z,30.50
2019-04-22T14:54:25.172Z,29.80
2019-04-22T14:56:38.291Z,29.80
2019-04-22T14:59:09.273Z,30.30
2019-04-22T15:01:41.624Z,30.40
2019-04-22T15:04:11.002Z,30.30
2019-04-22T15:06:44.513Z,30.80
2019-04-22T15:09:14.367Z,31.10
2019-04-22T15:12:00.845Z,31.00
2019-04-22T15:14:17.275Z,30.10
2019-04-22T15:17:11.197Z,29.70
2019-04-22T15:19:47.724Z,29.80
2019-04-22T15:22:21.012Z,29.90
2019-04-22T15:24:50.304Z,30.10
2019-04-22T15:27:29.597Z,29.70
2019-04-22T15:29:59.572Z,29.30
2019-04-22T15:32:29.555Z,28.70
2019-04-22T15:34:59.592Z,27.90
2019-04-22T15:37:31.111Z,27.00
2019-04-22T15:40:00.571Z,26.40
2019-04-22T15:42:35.574Z,26.20
2019-04-22T15:44:59.931Z,25.80
2019-04-22T15:47:31.381Z,25.70
2019-04-22T15:50:01.405Z,25.80
2019-04-22T15:52:43.374Z,25.60
2019-04-22T15:55:09.071Z,25.60
2019-04-22T15:57:38.439Z,25.60
2019-04-22T16:00:25.532Z,25.60
2019-04-22T16:02:41.436Z,25.60
2019-04-22T16:05:14.806Z,25.40
2019-04-22T16:07:43.934Z,25.10
2019-04-22T16:10:17.796Z,25.00
2019-04-22T16:12:56.003Z,25.20
2019-04-22T16:15:18.428Z,25.50
2019-04-22T16:17:48.734Z,25.60
2019-04-22T16:20:23.714Z,25.90
2019-04-22T16:22:59.473Z,26.20
2019-04-22T16:26:01.037Z,26.20
2019-04-22T16:28:33.088Z,26.30
2019-04-22T16:31:03.909Z,26.40
2019-04-22T16:33:39.307Z,26.50
2019-04-22T16:36:09.169Z,26.00
2019-04-22T16:38:40.900Z,25.60
2019-04-22T16:41:16.885Z,25.30
2019-04-22T16:43:48.742Z,25.20
2019-04-22T16:46:17.650Z,24.80
2019-04-22T16:48:49.673Z,24.40
2019-04-22T16:51:24.640Z,23.90
2019-04-22T16:53:53.960Z,23.50
2019-04-22T16:56:33.884Z,23.10
2019-04-22T16:59:01.011Z,22.80
2019-04-22T17:01:43.633Z,22.50
2019-04-22T17:04:20.805Z,22.30
2019-04-22T17:06:59.494Z,22.10
2019-04-22T17:09:29.753Z,22.00
2019-04-22T17:11:58.617Z,21.90
2019-04-22T17:14:35.891Z,21.80
2019-04-22T17:17:04.426Z,21.70
2019-04-22T17:19:33.321Z,21.50
2019-04-22T17:22:03.686Z,21.50
2019-04-22T17:24:32.566Z,21.40
2019-04-22T17:27:08.539Z,21.30
2019-04-22T17:29:38.648Z,21.20
2019-04-22T17:32:17.697Z,21.20
2019-04-22T17:34:47.621Z,21.20
2019-04-22T17:37:24.148Z,21.20
2019-04-22T17:40:07.311Z,21.10
2019-04-22T17:42:40.532Z,21.00
2019-04-22T17:45:22.209Z,20.90
2019-04-22T17:48:09.870Z,20.80
2019-04-22T17:50:48.495Z,20.70
2019-04-22T17:53:23.034Z,20.60
2019-04-22T17:55:49.430Z,20.40
2019-04-22T17:58:24.047Z,20.30
2019-04-22T18:00:47.579Z,20.20
2019-04-22T18:03:17.530Z,20.10
2019-04-22T18:05:48.014Z,20.10
2019-04-22T18:08:29.711Z,20.10
2019-04-22T18:11:05.951Z,20.10
2019-04-22T18:13:40.966Z,20.00
2019-04-22T18:16:08.224Z,20.00
2019-04-22T18:18:37.138Z,19.90
2019-04-22T18:21:14.711Z,19.70
2019-04-22T18:23:43.703Z,19.60
2019-04-22T18:26:29.600Z,19.50
2019-04-22T18:29:02.719Z,19.30
2019-04-22T18:31:28.638Z,19.20
2019-04-22T18:34:03.501Z,19.10
2019-04-22T18:36:33.309Z,19.00
2019-04-22T18:39:21.299Z,18.90
2019-04-22T18:41:43.952Z,18.70
2019-04-22T18:44:16.914Z,18.60
2019-04-22T18:46:42.687Z,18.60
2019-04-22T18:49:11.008Z,18.60
2019-04-22T18:51:57.780Z,18.50
2019-04-22T18:54:53.489Z,18.50
2019-04-22T18:57:22.423Z,18.40
2019-04-22T18:59:40.157Z,18.40
2019-04-22T19:02:11.785Z,18.50
2019-04-22T19:04:53.347Z,18.40
2019-04-22T19:07:36.737Z,18.30
2019-04-22T19:10:10.256Z,18.10
2019-04-22T19:12:41.842Z,18.00
2019-04-22T19:15:12.891Z,18.00
2019-04-22T19:17:46.051Z,17.90
2019-04-22T19:22:43.836Z,17.40
2019-04-22T19:25:06.259Z,17.10
2019-04-22T19:27:40.714Z,17.00
2019-04-22T19:30:16.449Z,17.00
2019-04-22T19:32:47.730Z,17.00
2019-04-22T19:35:15.635Z,17.00
2019-04-22T19:37:40.035Z,17.00
2019-04-22T19:40:15.083Z,17.00
2019-04-22T19:42:53.473Z,16.90
2019-04-22T19:45:14.737Z,16.80
2019-04-22T19:47:53.552Z,16.70
2019-04-22T19:50:17.413Z,16.70
2019-04-22T19:52:43.557Z,16.60
2019-04-22T19:55:18.205Z,16.40
2019-04-22T19:57:43.382Z,16.20
2019-04-22T20:00:31.646Z,16.00
2019-04-22T20:03:29.677Z,15.90
2019-04-22T20:05:58.127Z,15.90
2019-04-22T20:08:21.462Z,15.80
2019-04-22T20:10:51.119Z,15.70
2019-04-22T20:13:28.867Z,15.60
2019-04-22T20:15:43.414Z,15.60
2019-04-22T20:18:41.843Z,15.50
2019-04-22T20:20:54.379Z,15.40
2019-04-22T20:23:14.253Z,15.30
2019-04-22T20:25:48.455Z,15.40
2019-04-22T20:28:35.815Z,15.40
2019-04-22T20:30:55.961Z,15.30
2019-04-22T20:33:29.465Z,15.40
2019-04-22T20:36:11.467Z,15.40
2019-04-22T20:38:29.705Z,15.40
2019-04-22T20:40:58.351Z,15.40
2019-04-22T20:43:35.540Z,15.40
2019-04-22T20:46:05.274Z,15.30
2019-04-22T20:48:30.609Z,15.30
2019-04-22T20:50:59.229Z,15.30
2019-04-22T20:53:38.306Z,15.30
2019-04-22T20:56:02.738Z,15.40
2019-04-22T20:58:32.772Z,15.40
2019-04-22T21:00:56.859Z,15.30
2019-04-22T21:03:26.208Z,15.20
2019-04-22T21:05:55.922Z,15.00
2019-04-22T21:08:38.984Z,14.90
2019-04-22T21:10:56.035Z,15.00
2019-04-22T21:13:28.053Z,15.00
2019-04-22T21:16:09.423Z,15.10
2019-04-22T21:18:33.301Z,15.10
2019-04-22T21:21:15.111Z,15.20
2019-04-22T21:23:35.113Z,15.20
2019-04-22T21:26:11.066Z,15.20
2019-04-22T21:28:38.770Z,15.30
2019-04-22T21:31:10.247Z,15.30
2019-04-22T21:33:44.690Z,15.30
2019-04-22T21:36:20.147Z,15.30
2019-04-22T21:38:45.367Z,15.20
2019-04-22T21:41:09.983Z,15.20
2019-04-22T21:43:42.152Z,15.30
2019-04-22T21:46:14.184Z,15.20
2019-04-22T21:48:42.163Z,15.10
2019-04-22T21:51:22.657Z,15.10
2019-04-22T21:53:53.690Z,15.00
2019-04-22T21:56:31.805Z,14.90
2019-04-22T21:58:50.616Z,14.90
2019-04-22T22:01:29.564Z,14.80
2019-04-22T22:03:55.256Z,14.80
2019-04-22T22:06:19.040Z,14.80
2019-04-22T22:08:54.787Z,14.70
2019-04-22T22:11:24.130Z,14.70
2019-04-22T22:13:59.506Z,14.70
2019-04-22T22:16:23.165Z,14.60
2019-04-22T22:19:02.004Z,14.60
2019-04-22T22:21:40.717Z,14.50
2019-04-22T22:24:04.230Z,14.50
2019-04-22T22:26:39.920Z,14.40
2019-04-22T22:29:11.796Z,14.40
2019-04-22T22:31:40.891Z,14.30
2019-04-22T22:34:12.694Z,14.20
2019-04-22T22:36:33.578Z,14.20
2019-04-22T22:39:05.713Z,14.10
2019-04-22T22:41:21.495Z,14.00
2019-04-22T22:43:51.585Z,13.90
2019-04-22T22:46:33.210Z,13.80
2019-04-22T22:49:09.888Z,13.70
2019-04-22T22:51:53.240Z,13.60
2019-04-22T22:54:18.139Z,13.50
2019-04-22T22:57:00.334Z,13.50
2019-04-22T22:59:24.061Z,13.40
2019-04-22T23:01:52.813Z,13.30
2019-04-22T23:04:29.286Z,13.30
2019-04-22T23:07:00.404Z,13.30
2019-04-22T23:09:34.973Z,13.30
2019-04-22T23:12:13.205Z,13.30
2019-04-22T23:14:34.578Z,13.30
2019-04-22T23:16:52.976Z,13.30
2019-04-22T23:19:17.753Z,13.10
2019-04-22T23:21:53.884Z,13.00
2019-04-22T23:24:54.357Z,12.90
2019-04-22T23:27:34.558Z,12.80
2019-04-22T23:29:57.531Z,12.70
2019-04-22T23:32:35.890Z,12.70
2019-04-22T23:35:16.605Z,12.60
2019-04-22T23:37:51.942Z,12.60
2019-04-22T23:42:52.788Z,12.40
2019-04-22T23:45:31.090Z,12.40
2019-04-22T23:47:49.514Z,12.40
2019-04-22T23:50:30.810Z,12.40
2019-04-22T23:53:02.133Z,12.30
2019-04-22T23:55:37.027Z,12.10
2019-04-22T23:58:11.985Z,12.00
